Hovedside
METAR-TAF:

METAR-TAF

Lufthavner :

Hans Christian Andersen Airport

Odense, Danmark

breddegrad: 55-29N, lengdegrad: 010-20E, høyde over havet: 17 m

Gjeldene værobservasjon

Denne rapporten ble laget for 21 minutter siden, klokken 12:20 UTC
Vind 6 kt fra Sør-sørvest, skiftende mellom Sør og Vest-sørvest
Temperatur 6°C
Luftfuktighet 87%
Trykk 1011 hPa
Sikt 10 km eller mer
Få skyer i en høyde av 1600 ft
Brutte skyer i en høyde av 14000 ft

METAR: EKOD 241220Z 21006KT 180V240 9999 FEW016 BKN140 06/04 Q1011

Tid: 13:41 (12:41 UTC)

Varsel

Denne rapporten ble laget for 43 minutter siden, klokken 11:58 UTC
Varsel gyldig fra 24. klokken 12 UTC til 24. klokken 16 UTC
Vind 8 kt fra Sør-sørvest
Sikt 10 km eller mer
Spredte skyer i en høyde av 1500 ft

TAF: EKOD 241158Z 2412/2416 21008KT 9999 SCT015

Værobservasjoner og værvarsel for over 4000 flyplasser (METAR- og TAF-rapporter).

Tilgjengelige stasjoner er representert av de røde og gule prikkene på kartet.

Hold musepekeren over prikken for å se navnet på stasjonen.

Klikk så for å se værobservasjoner og -varsler.

For å forandre kartet kan du klikke på den grønne knappen med svart kryss for å zoome inn, på den grønne knappen med strek for å zoome ut, eller på de grønne pilene for å se tilstøtende kart.


METAR-TAF: